createdAt,value
2023-01-02T00:01:21.935Z,43.60
2023-01-02T00:03:49.168Z,44.28
2023-01-02T00:06:18.124Z,44.15
2023-01-02T00:08:45.507Z,44.67
2023-01-02T00:11:12.783Z,43.78
2023-01-02T00:13:40.071Z,43.97
2023-01-02T00:16:08.965Z,45.70
2023-01-02T00:18:36.210Z,45.15
2023-01-02T00:21:06.020Z,47.17
2023-01-02T00:23:33.875Z,46.20
2023-01-02T00:26:01.136Z,43.78
2023-01-02T00:28:29.244Z,44.83
2023-01-02T00:30:57.379Z,45.13
2023-01-02T00:33:24.686Z,43.03
2023-01-02T00:35:51.956Z,44.03
2023-01-02T00:38:19.387Z,43.33
2023-01-02T00:40:46.557Z,43.35
2023-01-02T00:43:13.807Z,46.60
2023-01-02T00:45:40.975Z,52.47
2023-01-02T00:48:08.123Z,50.88
2023-01-02T00:50:36.682Z,52.58
2023-01-02T00:53:03.810Z,49.78
2023-01-02T00:55:32.224Z,49.97
2023-01-02T00:57:59.403Z,50.35
2023-01-02T01:00:26.652Z,53.38
2023-01-02T01:03:00.844Z,51.53
2023-01-02T01:05:29.456Z,51.75
2023-01-02T01:07:58.102Z,52.65
2023-01-02T01:10:26.672Z,53.88
2023-01-02T01:12:53.937Z,54.05
2023-01-02T01:15:21.272Z,55.38
2023-01-02T01:17:48.848Z,52.00
2023-01-02T01:20:16.170Z,57.03
2023-01-02T01:22:43.446Z,52.13
2023-01-02T01:25:10.678Z,52.70
2023-01-02T01:27:38.361Z,54.65
2023-01-02T01:30:07.313Z,53.90
2023-01-02T01:32:35.039Z,54.20
2023-01-02T01:35:02.498Z,52.55
2023-01-02T01:37:29.720Z,53.08
2023-01-02T01:39:57.210Z,53.03
2023-01-02T01:42:24.504Z,52.30
2023-01-02T01:44:54.898Z,55.78
2023-01-02T01:47:42.404Z,53.88
2023-01-02T01:50:18.969Z,53.78
2023-01-02T01:53:08.586Z,54.53
2023-01-02T01:55:43.783Z,54.90
2023-01-02T01:58:29.213Z,52.35
2023-01-02T02:00:56.869Z,54.63
2023-01-02T02:03:29.304Z,55.13
2023-01-02T02:05:59.669Z,51.67
2023-01-02T02:08:49.071Z,50.15
2023-01-02T02:11:17.479Z,49.13
2023-01-02T02:13:45.112Z,51.97
2023-01-02T02:16:18.488Z,52.10
2023-01-02T02:19:35.057Z,54.65
2023-01-02T02:22:49.271Z,54.03
2023-01-02T02:25:50.826Z,52.38
2023-01-02T02:29:05.805Z,54.83
2023-01-02T02:31:48.961Z,55.50
2023-01-02T02:34:29.543Z,52.28
2023-01-02T02:37:18.083Z,56.25
2023-01-02T02:40:03.520Z,58.47
2023-01-02T02:43:11.465Z,52.70
2023-01-02T02:46:12.771Z,54.88
2023-01-02T02:49:36.700Z,56.83
2023-01-02T02:52:27.762Z,58.13
2023-01-02T02:55:32.388Z,57.50
2023-01-02T02:58:01.493Z,58.33
2023-01-02T03:00:28.687Z,59.58
2023-01-02T03:02:56.788Z,59.30
2023-01-02T03:06:09.439Z,62.72
2023-01-02T03:09:33.924Z,60.85
2023-01-02T03:12:43.527Z,58.90
2023-01-02T03:15:32.581Z,59.10
2023-01-02T03:18:17.909Z,59.70
2023-01-02T03:21:03.000Z,61.27
2023-01-02T03:23:37.191Z,62.38
2023-01-02T03:26:05.345Z,59.45
2023-01-02T03:28:34.947Z,62.03
2023-01-02T03:31:04.929Z,63.50
2023-01-02T03:33:39.955Z,66.63
2023-01-02T03:36:17.323Z,65.43
2023-01-02T03:38:57.427Z,62.75
2023-01-02T03:41:33.920Z,61.45
2023-01-02T03:44:03.286Z,63.30
2023-01-02T03:47:05.627Z,61.55
2023-01-02T03:49:42.243Z,63.53
2023-01-02T03:52:09.610Z,59.90
2023-01-02T03:54:38.918Z,60.30
2023-01-02T03:57:59.619Z,60.72
2023-01-02T04:00:52.873Z,58.78
2023-01-02T04:04:18.019Z,60.08
2023-01-02T04:07:13.332Z,62.42
2023-01-02T04:09:45.629Z,61.40
2023-01-02T04:12:20.424Z,62.83
2023-01-02T04:15:01.317Z,63.65
2023-01-02T04:17:58.418Z,63.50
2023-01-02T04:20:40.832Z,63.53
2023-01-02T04:23:20.833Z,64.05
2023-01-02T04:26:31.813Z,63.90
2023-01-02T04:29:03.259Z,61.60
2023-01-02T04:32:08.494Z,62.70
2023-01-02T04:34:40.782Z,59.88
2023-01-02T04:37:12.223Z,64.72
2023-01-02T04:39:39.744Z,66.50
2023-01-02T04:42:07.278Z,65.32
2023-01-02T04:44:37.501Z,62.92
2023-01-02T04:47:05.155Z,61.80
2023-01-02T04:49:32.927Z,65.38
2023-01-02T04:52:03.618Z,64.53
2023-01-02T04:54:34.531Z,58.60
2023-01-02T04:57:19.898Z,64.75
2023-01-02T04:59:47.033Z,66.20
2023-01-02T05:02:14.356Z,65.43
2023-01-02T05:04:41.558Z,62.13
2023-01-02T05:07:08.819Z,64.20
2023-01-02T05:09:35.980Z,65.30
2023-01-02T05:12:03.273Z,67.80
2023-01-02T05:14:31.187Z,65.93
2023-01-02T05:16:58.416Z,65.60
2023-01-02T05:19:25.618Z,63.78
2023-01-02T05:22:11.571Z,63.35
2023-01-02T05:24:38.715Z,63.72
2023-01-02T05:27:05.876Z,62.83
2023-01-02T05:29:33.092Z,64.18
2023-01-02T05:32:00.310Z,66.53
2023-01-02T05:34:27.595Z,63.97
2023-01-02T05:36:54.760Z,65.95
2023-01-02T05:39:22.001Z,71.57
2023-01-02T05:41:49.195Z,64.63
2023-01-02T05:44:16.483Z,64.05
2023-01-02T05:46:44.646Z,66.50
2023-01-02T05:49:12.242Z,65.20
2023-01-02T05:51:39.605Z,63.45
2023-01-02T05:54:07.666Z,66.45
2023-01-02T05:56:34.918Z,68.20
2023-01-02T05:59:02.147Z,62.05
2023-01-02T06:01:30.434Z,63.53
2023-01-02T06:04:00.729Z,66.30
2023-01-02T06:06:41.037Z,61.80
2023-01-02T06:09:13.169Z,66.88
2023-01-02T06:11:40.658Z,66.35
2023-01-02T06:14:11.712Z,71.30
2023-01-02T06:16:40.122Z,65.57
2023-01-02T06:19:07.663Z,67.35
2023-01-02T06:21:34.954Z,68.53
2023-01-02T06:24:02.296Z,70.75
2023-01-02T06:26:34.898Z,73.80
2023-01-02T06:29:03.692Z,71.00
2023-01-02T06:31:33.334Z,65.75
2023-01-02T06:34:03.268Z,64.95
2023-01-02T06:36:33.947Z,66.13
2023-01-02T06:39:01.797Z,62.35
2023-01-02T06:41:29.191Z,63.80
2023-01-02T06:43:56.476Z,63.75
2023-01-02T06:46:24.500Z,66.55
2023-01-02T06:48:52.330Z,62.92
2023-01-02T06:51:23.503Z,61.78
2023-01-02T06:53:51.199Z,62.88
2023-01-02T06:56:20.332Z,63.58
2023-01-02T06:58:47.913Z,65.15
2023-01-02T07:01:19.895Z,62.92
2023-01-02T07:03:47.100Z,63.42
2023-01-02T07:06:19.751Z,65.47
2023-01-02T07:08:47.479Z,66.25
2023-01-02T07:11:24.603Z,63.78
2023-01-02T07:13:54.720Z,64.95
2023-01-02T07:16:24.234Z,66.45
2023-01-02T07:18:54.874Z,63.17
2023-01-02T07:21:22.336Z,63.53
2023-01-02T07:23:49.859Z,64.72
2023-01-02T07:26:17.192Z,64.00
2023-01-02T07:28:45.688Z,60.13
2023-01-02T07:31:17.630Z,60.67
2023-01-02T07:33:45.454Z,58.53
2023-01-02T07:36:17.791Z,58.33
2023-01-02T07:38:45.233Z,61.13
2023-01-02T07:41:19.275Z,62.08
2023-01-02T07:43:47.656Z,60.95
2023-01-02T07:46:19.319Z,62.15
2023-01-02T07:48:47.555Z,60.00
2023-01-02T07:51:17.394Z,61.78
2023-01-02T07:53:48.346Z,61.00
2023-01-02T07:56:15.578Z,60.33
2023-01-02T07:58:42.825Z,59.80
2023-01-02T08:01:13.199Z,61.05
2023-01-02T08:03:41.074Z,61.03
2023-01-02T08:06:16.152Z,61.65
2023-01-02T08:08:44.306Z,60.42
2023-01-02T08:11:17.661Z,58.67
2023-01-02T08:13:45.072Z,58.53
2023-01-02T08:16:19.230Z,58.25
2023-01-02T08:18:47.418Z,59.63
2023-01-02T08:21:15.107Z,55.97
2023-01-02T08:23:42.336Z,59.72
2023-01-02T08:26:11.319Z,59.95
2023-01-02T08:28:40.827Z,55.60
2023-01-02T08:31:20.330Z,57.00
2023-01-02T08:33:48.909Z,58.63
2023-01-02T08:36:16.376Z,57.30
2023-01-02T08:38:43.926Z,56.17
2023-01-02T08:41:11.128Z,56.78
2023-01-02T08:43:38.644Z,51.13
2023-01-02T08:46:08.971Z,55.35
2023-01-02T08:48:36.693Z,55.40
2023-01-02T08:51:04.958Z,53.72
2023-01-02T08:53:32.513Z,52.78
2023-01-02T08:56:28.638Z,52.22
2023-01-02T08:59:01.280Z,54.38
2023-01-02T09:01:30.822Z,54.33
2023-01-02T09:03:59.749Z,52.22
2023-01-02T09:06:30.797Z,52.80
2023-01-02T09:09:01.417Z,51.88
2023-01-02T09:11:36.427Z,52.33
2023-01-02T09:14:05.419Z,53.35
2023-01-02T09:16:33.729Z,52.25
2023-01-02T09:19:02.440Z,50.58
2023-01-02T09:21:30.384Z,49.03
2023-01-02T09:23:57.727Z,49.95
2023-01-02T09:26:25.303Z,46.70
2023-01-02T09:28:52.819Z,46.55
2023-01-02T09:31:20.867Z,47.97
2023-01-02T09:33:48.830Z,43.97
2023-01-02T09:36:19.337Z,42.20
2023-01-02T09:38:55.648Z,45.38
2023-01-02T09:41:58.996Z,43.03
2023-01-02T09:44:47.034Z,43.42
2023-01-02T09:47:24.033Z,46.38
2023-01-02T09:50:11.327Z,45.55
2023-01-02T09:52:48.963Z,44.83
2023-01-02T09:55:35.745Z,43.25
2023-01-02T09:58:28.576Z,45.20
2023-01-02T10:00:56.624Z,43.70
2023-01-02T10:04:33.217Z,41.40
2023-01-02T10:07:10.825Z,40.75
2023-01-02T10:09:56.694Z,41.10
2023-01-02T10:12:41.080Z,42.08
2023-01-02T10:15:27.610Z,39.78
2023-01-02T10:18:10.299Z,41.45
2023-01-02T10:20:43.282Z,38.65
2023-01-02T10:23:22.614Z,40.05
2023-01-02T10:26:01.581Z,39.97
2023-01-02T10:29:16.906Z,38.65
2023-01-02T10:32:02.705Z,36.65
2023-01-02T10:35:06.205Z,36.35
2023-01-02T10:37:35.611Z,37.67
2023-01-02T10:40:04.659Z,35.55
2023-01-02T10:42:33.932Z,35.55
2023-01-02T10:45:01.445Z,34.38
2023-01-02T10:47:40.945Z,35.75
2023-01-02T10:50:39.010Z,35.65
2023-01-02T10:53:31.044Z,38.17
2023-01-02T10:56:19.729Z,36.80
2023-01-02T10:58:50.589Z,37.85
2023-01-02T11:01:22.138Z,35.72
2023-01-02T11:04:12.896Z,34.55
2023-01-02T11:06:59.229Z,33.60
2023-01-02T11:09:36.427Z,34.38
2023-01-02T11:12:14.079Z,36.42
2023-01-02T11:14:41.427Z,35.17
2023-01-02T11:17:20.695Z,35.63
2023-01-02T11:19:56.833Z,35.70
2023-01-02T11:22:36.330Z,34.03
2023-01-02T11:25:20.794Z,34.83
2023-01-02T11:27:48.355Z,33.33
2023-01-02T11:30:47.185Z,33.42
2023-01-02T11:33:14.308Z,34.78
2023-01-02T11:36:12.719Z,35.20
2023-01-02T11:38:56.738Z,35.20
2023-01-02T11:42:13.444Z,35.47
2023-01-02T11:45:09.764Z,34.33
2023-01-02T11:47:44.412Z,34.97
2023-01-02T11:50:31.781Z,34.60
2023-01-02T11:53:11.802Z,35.90
2023-01-02T11:55:51.928Z,34.70
2023-01-02T11:58:33.611Z,33.47
2023-01-02T12:01:39.397Z,34.88
2023-01-02T12:04:06.920Z,34.08
2023-01-02T12:07:02.945Z,34.03
2023-01-02T12:10:16.835Z,35.63
2023-01-02T12:13:25.026Z,35.20
2023-01-02T12:16:34.337Z,34.50
2023-01-02T12:20:17.704Z,36.25
2023-01-02T12:22:59.130Z,32.83
2023-01-02T12:25:47.129Z,34.80
2023-01-02T12:29:45.967Z,32.03
2023-01-02T12:32:45.231Z,34.90
2023-01-02T12:35:41.230Z,33.75
2023-01-02T12:38:11.161Z,33.80
2023-01-02T12:41:28.914Z,32.72
2023-01-02T12:44:35.229Z,32.25
2023-01-02T12:47:31.906Z,32.92
2023-01-02T12:50:33.223Z,32.97
2023-01-02T12:53:25.686Z,35.15
2023-01-02T12:55:58.413Z,31.50
2023-01-02T12:59:04.136Z,34.72
2023-01-02T13:01:54.862Z,32.13
2023-01-02T13:04:43.550Z,31.52
2023-01-02T13:07:27.238Z,29.85
2023-01-02T13:09:57.796Z,30.50
2023-01-02T13:12:29.472Z,33.70
2023-01-02T13:15:03.899Z,30.48
2023-01-02T13:18:30.367Z,32.08
2023-01-02T13:21:39.789Z,30.75
2023-01-02T13:24:11.916Z,30.95
2023-01-02T13:26:39.885Z,28.95
2023-01-02T13:29:09.971Z,29.13
2023-01-02T13:31:49.177Z,29.40
2023-01-02T13:34:26.724Z,29.77
2023-01-02T13:37:05.545Z,28.52
2023-01-02T13:39:43.572Z,28.83
2023-01-02T13:42:51.381Z,28.10
2023-01-02T13:45:37.524Z,25.88
2023-01-02T13:48:38.486Z,27.88
2023-01-02T13:51:23.468Z,29.02
2023-01-02T13:53:53.227Z,30.33
2023-01-02T13:56:25.887Z,30.73
2023-01-02T13:59:41.902Z,29.42
2023-01-02T14:02:20.995Z,28.00
2023-01-02T14:04:48.462Z,28.17
2023-01-02T14:07:29.442Z,25.63
2023-01-02T14:10:19.697Z,27.50
2023-01-02T14:13:07.658Z,28.20
2023-01-02T14:16:12.576Z,28.20
2023-01-02T14:18:46.075Z,29.52
2023-01-02T14:21:17.921Z,30.13
2023-01-02T14:24:17.277Z,31.52
2023-01-02T14:26:39.923Z,31.10
2023-01-02T14:29:16.523Z,32.25
2023-01-02T14:31:44.140Z,33.63
2023-01-02T14:34:22.652Z,34.88
2023-01-02T14:36:51.502Z,32.00
2023-01-02T14:39:33.560Z,32.88
2023-01-02T14:42:41.283Z,33.20
2023-01-02T14:45:18.017Z,33.67
2023-01-02T14:48:00.491Z,31.05
2023-01-02T14:50:33.615Z,34.13
2023-01-02T14:53:37.315Z,36.13
2023-01-02T14:56:18.994Z,35.03
2023-01-02T14:58:49.211Z,34.03
2023-01-02T15:01:43.096Z,34.10
2023-01-02T15:04:38.806Z,33.45
2023-01-02T15:07:33.560Z,34.90
2023-01-02T15:10:26.899Z,33.63
2023-01-02T15:13:04.184Z,34.90
2023-01-02T15:15:49.917Z,34.45
2023-01-02T15:18:32.748Z,32.58
2023-01-02T15:21:26.265Z,33.67
2023-01-02T15:23:54.632Z,42.28
2023-01-02T15:26:34.791Z,36.40
2023-01-02T15:29:21.188Z,36.58
2023-01-02T15:32:00.440Z,36.78
2023-01-02T15:34:32.903Z,33.72
2023-01-02T15:37:07.500Z,33.25
2023-01-02T15:39:40.333Z,32.53
2023-01-02T15:42:49.763Z,32.28
2023-01-02T15:45:17.806Z,30.83
2023-01-02T15:47:50.239Z,32.92
2023-01-02T15:50:28.269Z,33.72
2023-01-02T15:53:02.909Z,29.25
2023-01-02T15:55:41.493Z,31.58
2023-01-02T15:58:17.598Z,30.73
2023-01-02T16:00:46.377Z,29.92
2023-01-02T16:04:02.152Z,30.15
2023-01-02T16:06:42.631Z,29.23
2023-01-02T16:09:28.258Z,30.48
2023-01-02T16:12:03.205Z,32.22
2023-01-02T16:14:39.653Z,31.35
2023-01-02T16:17:28.867Z,32.72
2023-01-02T16:20:07.723Z,33.10
2023-01-02T16:23:07.775Z,32.30
2023-01-02T16:25:43.951Z,33.45
2023-01-02T16:28:34.782Z,33.65
2023-01-02T16:31:18.235Z,33.15
2023-01-02T16:33:46.553Z,33.67
2023-01-02T16:36:28.896Z,32.53
2023-01-02T16:39:02.471Z,32.75
2023-01-02T16:41:38.132Z,32.95
2023-01-02T16:46:50.351Z,31.13
2023-01-02T16:49:22.370Z,32.25
2023-01-02T16:51:53.537Z,33.83
2023-01-02T16:54:20.980Z,33.63
2023-01-02T16:56:49.991Z,35.17
2023-01-02T16:59:17.260Z,36.00
2023-01-02T17:01:44.683Z,37.33
2023-01-02T17:04:13.995Z,35.63
2023-01-02T17:06:41.257Z,38.90
2023-01-02T17:09:08.390Z,41.35
2023-01-02T17:11:37.318Z,39.28
2023-01-02T17:14:08.007Z,40.03
2023-01-02T17:16:37.609Z,41.60
2023-01-02T17:19:04.967Z,39.97
2023-01-02T17:21:33.071Z,40.10
2023-01-02T17:24:26.389Z,40.88
2023-01-02T17:26:53.915Z,40.75
2023-01-02T17:29:23.029Z,39.42
2023-01-02T17:31:52.883Z,41.47
2023-01-02T17:34:28.664Z,43.67
2023-01-02T17:36:57.068Z,41.72
2023-01-02T17:39:25.634Z,40.78
2023-01-02T17:41:52.890Z,40.72
2023-01-02T17:44:20.417Z,41.53
2023-01-02T17:47:38.863Z,40.47
2023-01-02T17:49:41.316Z,40.17
2023-01-02T17:52:09.948Z,40.72
2023-01-02T17:54:37.209Z,41.40
2023-01-02T17:57:04.804Z,39.53
2023-01-02T17:59:34.120Z,43.08
2023-01-02T18:02:02.009Z,40.55
2023-01-02T18:04:29.848Z,39.47
2023-01-02T18:06:57.133Z,43.95
2023-01-02T18:09:32.729Z,42.22
2023-01-02T18:12:00.155Z,40.10
2023-01-02T18:14:28.334Z,41.05
2023-01-02T18:16:59.765Z,40.53
2023-01-02T18:19:36.604Z,42.35
2023-01-02T18:22:15.686Z,40.22
2023-01-02T18:24:49.888Z,40.72
2023-01-02T18:27:34.989Z,39.80
2023-01-02T18:30:18.540Z,37.42
2023-01-02T18:33:13.709Z,39.53
2023-01-02T18:35:58.536Z,38.45
2023-01-02T18:38:39.545Z,39.20
2023-01-02T18:41:24.641Z,40.58
2023-01-02T18:44:37.497Z,38.10
2023-01-02T18:47:32.418Z,36.72
2023-01-02T18:53:27.362Z,38.58
2023-01-02T18:56:02.423Z,38.70
2023-01-02T18:58:43.917Z,38.17
2023-01-02T19:01:30.495Z,38.70
2023-01-02T19:04:16.585Z,37.35
2023-01-02T19:06:54.608Z,35.95
2023-01-02T19:09:35.280Z,37.72
2023-01-02T19:13:07.329Z,37.00
2023-01-02T19:15:56.550Z,35.65
2023-01-02T19:18:49.439Z,39.53
2023-01-02T19:21:31.678Z,37.83
2023-01-02T19:24:04.950Z,38.47
2023-01-02T19:26:44.934Z,37.85
2023-01-02T19:29:23.900Z,41.55
2023-01-02T19:32:29.183Z,40.47
2023-01-02T19:35:09.002Z,39.03
2023-01-02T19:37:40.784Z,37.85
2023-01-02T19:40:23.013Z,37.67
2023-01-02T19:42:53.171Z,38.72
2023-01-02T19:45:28.057Z,38.17
2023-01-02T19:47:55.389Z,40.25
2023-01-02T19:50:26.907Z,43.42
2023-01-02T19:52:54.425Z,43.03
2023-01-02T19:55:21.794Z,43.15
2023-01-02T19:57:49.050Z,41.17
2023-01-02T20:00:19.437Z,40.15
2023-01-02T20:02:49.709Z,43.25
2023-01-02T20:05:21.771Z,42.53
2023-01-02T20:07:52.661Z,42.22
2023-01-02T20:10:21.583Z,40.30
2023-01-02T20:12:48.975Z,41.00
2023-01-02T20:15:21.039Z,40.78
2023-01-02T20:17:48.377Z,43.83
2023-01-02T20:20:20.328Z,43.00
2023-01-02T20:22:51.149Z,41.33
2023-01-02T20:25:23.751Z,40.95
2023-01-02T20:27:55.869Z,41.40
2023-01-02T20:30:25.434Z,41.97
2023-01-02T20:32:55.902Z,40.65
2023-01-02T20:35:23.657Z,38.83
2023-01-02T20:37:51.025Z,39.88
2023-01-02T20:40:18.328Z,38.15
2023-01-02T20:42:45.547Z,39.20
2023-01-02T20:45:13.139Z,37.55
2023-01-02T20:47:40.488Z,37.38
2023-01-02T20:50:08.609Z,38.28
2023-01-02T20:52:35.896Z,38.00
2023-01-02T20:55:03.357Z,38.42
2023-01-02T20:57:30.749Z,36.92
2023-01-02T20:59:57.975Z,39.08
2023-01-02T21:02:26.361Z,42.10
2023-01-02T21:04:53.850Z,38.90
2023-01-02T21:07:21.709Z,37.95
2023-01-02T21:09:48.902Z,36.30
2023-01-02T21:12:51.354Z,34.42
2023-01-02T21:15:37.202Z,35.50
2023-01-02T21:18:04.699Z,34.90
2023-01-02T21:20:31.870Z,36.22
2023-01-02T21:22:59.525Z,32.50
2023-01-02T21:25:30.468Z,33.03
2023-01-02T21:28:06.723Z,29.83
2023-01-02T21:30:34.813Z,29.70
2023-01-02T21:33:02.101Z,30.58
2023-01-02T21:35:29.803Z,30.35
2023-01-02T21:37:57.103Z,30.00
2023-01-02T21:40:24.977Z,29.58
2023-01-02T21:42:52.217Z,29.17
2023-01-02T21:45:20.796Z,28.23
2023-01-02T21:47:49.053Z,27.02
2023-01-02T21:50:16.497Z,26.42
2023-01-02T21:52:43.962Z,25.70
2023-01-02T21:55:17.783Z,25.85
2023-01-02T21:58:13.017Z,26.17
2023-01-02T22:00:45.978Z,26.80
2023-01-02T22:03:13.647Z,24.55
2023-01-02T22:05:41.576Z,25.15
2023-01-02T22:08:09.045Z,25.02
2023-01-02T22:10:37.388Z,27.65
2023-01-02T22:13:04.812Z,28.40
2023-01-02T22:15:32.219Z,26.83
2023-01-02T22:18:00.105Z,25.20
2023-01-02T22:20:27.585Z,27.33
2023-01-02T22:23:03.609Z,26.98
2023-01-02T22:25:31.928Z,28.10
2023-01-02T22:28:00.207Z,28.13
2023-01-02T22:30:35.173Z,26.77
2023-01-02T22:33:03.437Z,27.42
2023-01-02T22:35:32.749Z,28.70
2023-01-02T22:38:01.615Z,29.10
2023-01-02T22:40:33.132Z,29.13
2023-01-02T22:43:05.224Z,30.30
2023-01-02T22:45:53.634Z,28.40
2023-01-02T22:48:49.842Z,28.98
2023-01-02T22:51:22.851Z,31.27
2023-01-02T22:53:58.828Z,27.73
2023-01-02T22:56:35.351Z,29.90
2023-01-02T22:59:05.412Z,31.27
2023-01-02T23:01:38.902Z,30.33
2023-01-02T23:04:28.196Z,30.35
2023-01-02T23:07:23.321Z,30.08
2023-01-02T23:09:49.323Z,29.40
2023-01-02T23:12:17.044Z,30.10
2023-01-02T23:14:45.346Z,29.80
2023-01-02T23:17:38.111Z,27.88
2023-01-02T23:20:06.453Z,28.48
2023-01-02T23:22:37.318Z,30.33
2023-01-02T23:25:07.418Z,30.50
2023-01-02T23:27:34.939Z,29.90
2023-01-02T23:30:02.873Z,30.60
2023-01-02T23:32:30.518Z,31.02
2023-01-02T23:35:00.428Z,31.73
2023-01-02T23:37:33.145Z,30.38
2023-01-02T23:40:06.083Z,29.77
2023-01-02T23:42:45.638Z,29.45
2023-01-02T23:45:12.970Z,28.45
2023-01-02T23:47:44.124Z,30.10
2023-01-02T23:50:11.745Z,32.97
2023-01-02T23:52:39.071Z,32.20
2023-01-02T23:55:11.151Z,32.58
2023-01-02T23:57:38.558Z,31.48
